createdAt,value
2023-02-11T00:01:34.382Z,103111.03
2023-02-11T00:04:03.284Z,103111.06
2023-02-11T00:06:33.506Z,103112.97
2023-02-11T00:09:01.454Z,103114.72
2023-02-11T00:11:30.619Z,103119.84
2023-02-11T00:14:02.536Z,103124.06
2023-02-11T00:16:32.007Z,103119.78
2023-02-11T00:19:02.607Z,103112.03
2023-02-11T00:21:30.390Z,103108.59
2023-02-11T00:24:00.046Z,103122.28
2023-02-11T00:26:36.380Z,103117.81
2023-02-11T00:29:05.785Z,103107.50
2023-02-11T00:31:34.488Z,103111.03
2023-02-11T00:34:02.886Z,103110.28
2023-02-11T00:36:30.528Z,103109.25
2023-02-11T00:38:59.804Z,103113.47
2023-02-11T00:41:29.408Z,103111.03
2023-02-11T00:44:01.938Z,103109.25
2023-02-11T00:46:30.327Z,103104.16
2023-02-11T00:48:58.129Z,103108.41
2023-02-11T00:51:27.391Z,103109.03
2023-02-11T00:53:55.767Z,103111.56
2023-02-11T00:56:24.308Z,103102.88
2023-02-11T00:58:53.426Z,103100.41
2023-02-11T01:01:21.853Z,103107.25
2023-02-11T01:03:50.192Z,103107.25
2023-02-11T01:06:17.872Z,103103.69
2023-02-11T01:08:46.438Z,103100.88
2023-02-11T01:11:18.086Z,103099.75
2023-02-11T01:13:48.064Z,103100.84
2023-02-11T01:16:17.469Z,103098.31
2023-02-11T01:18:46.350Z,103093.19
2023-02-11T01:21:14.860Z,103094.84
2023-02-11T01:23:44.831Z,103087.22
2023-02-11T01:26:13.355Z,103094.94
2023-02-11T01:28:41.224Z,103093.16
2023-02-11T01:31:08.840Z,103093.16
2023-02-11T01:33:36.541Z,103089.47
2023-02-11T01:36:07.835Z,103091.44
2023-02-11T01:38:36.468Z,103087.13
2023-02-11T01:41:07.413Z,103099.16
2023-02-11T01:43:38.284Z,103101.72
2023-02-11T01:46:21.254Z,103097.31
2023-02-11T01:48:53.939Z,103092.09
2023-02-11T01:51:27.431Z,103079.25
2023-02-11T01:54:16.369Z,103074.13
2023-02-11T01:57:07.333Z,103074.09
2023-02-11T01:59:44.883Z,103077.47
2023-02-11T02:02:15.234Z,103073.09
2023-02-11T02:04:57.583Z,103077.50
2023-02-11T02:07:39.641Z,103081.84
2023-02-11T02:10:15.798Z,103081.84
2023-02-11T02:12:43.993Z,103079.19
2023-02-11T02:15:23.097Z,103080.88
2023-02-11T02:18:20.597Z,103081.69
2023-02-11T02:21:21.876Z,103073.97
2023-02-11T02:24:21.073Z,103074.84
2023-02-11T02:27:12.541Z,103072.97
2023-02-11T02:29:46.524Z,103076.50
2023-02-11T02:32:35.234Z,103067.84
2023-02-11T02:35:30.977Z,103060.94
2023-02-11T02:38:24.148Z,103077.19
2023-02-11T02:41:21.088Z,103069.38
2023-02-11T02:43:50.998Z,103062.63
2023-02-11T02:46:24.360Z,103060.88
2023-02-11T02:48:53.769Z,103057.38
2023-02-11T02:51:27.668Z,103063.44
2023-02-11T02:53:55.316Z,103060.00
2023-02-11T02:56:49.182Z,103053.94
2023-02-11T02:59:23.101Z,103046.16
2023-02-11T03:02:03.500Z,103041.78
2023-02-11T03:04:38.153Z,103038.41
2023-02-11T03:07:26.179Z,103041.78
2023-02-11T03:10:23.247Z,103037.38
2023-02-11T03:12:54.095Z,103035.53
2023-02-11T03:15:25.342Z,103040.59
2023-02-11T03:17:57.378Z,103024.31
2023-02-11T03:20:28.447Z,103025.84
2023-02-11T03:23:03.063Z,103028.41
2023-02-11T03:25:37.313Z,103032.63
2023-02-11T03:28:25.338Z,103029.97
2023-02-11T03:31:10.898Z,103018.91
2023-02-11T03:33:54.830Z,103022.28
2023-02-11T03:36:32.915Z,103022.31
2023-02-11T03:39:04.266Z,103019.88
2023-02-11T03:41:34.301Z,103019.63
2023-02-11T03:44:03.362Z,103010.06
2023-02-11T03:46:36.870Z,103006.66
2023-02-11T03:49:09.366Z,103017.16
2023-02-11T03:51:38.120Z,103015.50
2023-02-11T03:54:14.941Z,103008.66
2023-02-11T03:56:51.350Z,103008.66
2023-02-11T03:59:19.569Z,103008.66
2023-02-11T04:01:47.350Z,103005.13
2023-02-11T04:04:15.640Z,103008.69
2023-02-11T04:06:43.588Z,102997.47
2023-02-11T04:09:12.757Z,102999.66
2023-02-11T04:11:40.412Z,103002.31
2023-02-11T04:14:07.990Z,103003.22
2023-02-11T04:16:36.016Z,103000.63
2023-02-11T04:19:04.244Z,102989.53
2023-02-11T04:21:32.261Z,102988.63
2023-02-11T04:24:00.257Z,102994.50
2023-02-11T04:26:28.313Z,102996.22
2023-02-11T04:28:55.904Z,102999.47
2023-02-11T04:31:24.158Z,102986.66
2023-02-11T04:33:52.203Z,102994.47
2023-02-11T04:36:20.421Z,102990.31
2023-02-11T04:38:48.856Z,102979.13
2023-02-11T04:41:16.371Z,102965.44
2023-02-11T04:43:44.057Z,102970.56
2023-02-11T04:46:11.826Z,102974.72
2023-02-11T04:48:39.429Z,102976.66
2023-02-11T04:51:07.092Z,102966.09
2023-02-11T04:53:35.231Z,102977.97
2023-02-11T04:56:03.260Z,102974.59
2023-02-11T04:58:31.196Z,102976.19
2023-02-11T05:01:10.328Z,102967.53
2023-02-11T05:03:38.665Z,102970.06
2023-02-11T05:06:07.090Z,102985.50
2023-02-11T05:08:34.807Z,102983.00
2023-02-11T05:11:02.517Z,102977.63
2023-02-11T05:13:31.195Z,102974.28
2023-02-11T05:15:59.497Z,102981.13
2023-02-11T05:18:28.234Z,102977.00
2023-02-11T05:20:55.871Z,102980.59
2023-02-11T05:23:23.498Z,102977.97
2023-02-11T05:25:51.722Z,102972.81
2023-02-11T05:28:19.510Z,102977.16
2023-02-11T05:30:47.206Z,102977.94
2023-02-11T05:33:15.323Z,102982.22
2023-02-11T05:35:43.307Z,102971.97
2023-02-11T05:38:11.168Z,102975.34
2023-02-11T05:40:40.344Z,102976.00
2023-02-11T05:43:08.405Z,102965.72
2023-02-11T05:45:36.938Z,102964.13
2023-02-11T05:48:04.671Z,102973.63
2023-02-11T05:50:32.334Z,102977.13
2023-02-11T05:53:00.585Z,102970.28
2023-02-11T05:55:28.358Z,102971.78
2023-02-11T05:57:56.379Z,102970.63
2023-02-11T06:00:24.339Z,102967.31
2023-02-11T06:02:52.673Z,102972.38
2023-02-11T06:05:20.801Z,102963.00
2023-02-11T06:07:48.836Z,102965.72
2023-02-11T06:10:16.315Z,102962.38
2023-02-11T06:12:44.917Z,102956.41
2023-02-11T06:15:13.037Z,102953.06
2023-02-11T06:17:41.156Z,102948.72
2023-02-11T06:20:10.700Z,102943.56
2023-02-11T06:22:38.445Z,102949.59
2023-02-11T06:25:07.411Z,102957.41
2023-02-11T06:27:35.063Z,102954.88
2023-02-11T06:30:03.153Z,102954.13
2023-02-11T06:32:46.730Z,102957.56
2023-02-11T06:35:15.160Z,102949.88
2023-02-11T06:37:43.172Z,102951.50
2023-02-11T06:40:11.699Z,102952.69
2023-02-11T06:42:39.702Z,102953.53
2023-02-11T06:45:09.778Z,102956.97
2023-02-11T06:47:38.234Z,102957.13
2023-02-11T06:50:08.761Z,102957.22
2023-02-11T06:52:36.835Z,102964.19
2023-02-11T06:55:05.279Z,102970.28
2023-02-11T06:57:33.171Z,102966.19
2023-02-11T07:00:01.197Z,102962.00
2023-02-11T07:02:29.033Z,102969.03
2023-02-11T07:04:57.481Z,102973.41
2023-02-11T07:07:24.979Z,102973.44
2023-02-11T07:09:52.942Z,102956.50
2023-02-11T07:12:20.559Z,102954.13
2023-02-11T07:14:48.155Z,102959.28
2023-02-11T07:17:16.282Z,102953.28
2023-02-11T07:19:44.139Z,102952.59
2023-02-11T07:22:12.205Z,102967.94
2023-02-11T07:24:40.804Z,102965.34
2023-02-11T07:27:08.434Z,102968.16
2023-02-11T07:29:36.106Z,102969.28
2023-02-11T07:32:04.324Z,102968.47
2023-02-11T07:34:33.228Z,102966.81
2023-02-11T07:37:01.479Z,102977.75
2023-02-11T07:39:29.571Z,102978.88
2023-02-11T07:41:57.637Z,102982.50
2023-02-11T07:44:26.159Z,102983.44
2023-02-11T07:46:54.439Z,102986.13
2023-02-11T07:49:22.131Z,102981.81
2023-02-11T07:51:51.538Z,102977.63
2023-02-11T07:54:19.771Z,102985.50
2023-02-11T07:56:47.417Z,102979.31
2023-02-11T07:59:15.198Z,102974.81
2023-02-11T08:01:44.008Z,102981.03
2023-02-11T08:04:12.488Z,102971.69
2023-02-11T08:06:42.734Z,102975.19
2023-02-11T08:09:15.322Z,102979.53
2023-02-11T08:11:43.366Z,102976.94
2023-02-11T08:14:12.484Z,102976.06
2023-02-11T08:16:41.242Z,102987.22
2023-02-11T08:19:15.600Z,102981.00
2023-02-11T08:21:43.898Z,102983.63
2023-02-11T08:24:12.551Z,102981.03
2023-02-11T08:26:40.324Z,102984.56
2023-02-11T08:29:14.300Z,102982.75
2023-02-11T08:31:45.411Z,102976.78
2023-02-11T08:34:14.762Z,102978.44
2023-02-11T08:36:43.998Z,102970.41
2023-02-11T08:39:20.795Z,102972.84
2023-02-11T08:41:53.935Z,102979.00
2023-02-11T08:44:23.030Z,102981.03
2023-02-11T08:46:52.276Z,102990.69
2023-02-11T08:49:20.621Z,102983.63
2023-02-11T08:51:48.861Z,102983.56
2023-02-11T08:54:16.702Z,102978.88
2023-02-11T08:56:45.358Z,102993.78
2023-02-11T08:59:15.546Z,102994.66
2023-02-11T09:01:44.528Z,102997.25
2023-02-11T09:04:13.089Z,102992.75
2023-02-11T09:06:41.304Z,103009.44
2023-02-11T09:09:13.707Z,103002.88
2023-02-11T09:11:43.075Z,102997.94
2023-02-11T09:14:22.622Z,103009.38
2023-02-11T09:16:51.919Z,102994.59
2023-02-11T09:19:21.021Z,102997.38
2023-02-11T09:21:49.296Z,103002.81
2023-02-11T09:24:17.338Z,102992.75
2023-02-11T09:26:46.128Z,103006.16
2023-02-11T09:29:14.253Z,102990.88
2023-02-11T09:31:42.653Z,102987.41
2023-02-11T09:34:11.519Z,102982.50
2023-02-11T09:36:40.870Z,102982.28
2023-02-11T09:39:20.556Z,102978.97
2023-02-11T09:42:03.833Z,102990.06
2023-02-11T09:44:37.640Z,102984.13
2023-02-11T09:47:24.141Z,102982.28
2023-02-11T09:50:00.269Z,102996.47
2023-02-11T09:52:48.318Z,102994.47
2023-02-11T09:55:29.953Z,102992.94
2023-02-11T09:57:58.973Z,102995.75
2023-02-11T10:00:29.507Z,102995.50
2023-02-11T10:03:20.742Z,102983.78
2023-02-11T10:06:14.120Z,102987.44
2023-02-11T10:09:17.227Z,103001.22
2023-02-11T10:11:53.206Z,102993.25
2023-02-11T10:14:39.726Z,102993.41
2023-02-11T10:17:18.485Z,102995.72
2023-02-11T10:20:17.186Z,102997.63
2023-02-11T10:22:58.358Z,102992.38
2023-02-11T10:25:39.429Z,102991.06
2023-02-11T10:28:20.323Z,102995.47
2023-02-11T10:31:34.493Z,102981.75
2023-02-11T10:34:07.178Z,102985.22
2023-02-11T10:36:38.283Z,102983.72
2023-02-11T10:39:18.558Z,102974.06
2023-02-11T10:42:01.080Z,102968.31
2023-02-11T10:44:38.754Z,102988.63
2023-02-11T10:47:19.321Z,102977.38
2023-02-11T11:15:11.771Z,102941.13
2023-02-11T11:17:40.222Z,102932.19
2023-02-11T11:20:19.868Z,102929.78
2023-02-11T11:22:49.813Z,102920.13
2023-02-11T11:25:23.099Z,102916.47
2023-02-11T11:27:55.290Z,102907.44
2023-02-11T11:30:26.436Z,102888.66
2023-02-11T11:32:54.942Z,102891.66
2023-02-11T11:35:28.248Z,102888.81
2023-02-11T11:38:02.038Z,102884.59
2023-02-11T11:40:33.091Z,102889.31
2023-02-11T11:43:14.808Z,102885.81
2023-02-11T11:46:00.267Z,102886.09
2023-02-11T11:48:50.945Z,102883.81
2023-02-11T11:51:19.885Z,102893.78
2023-02-11T11:54:01.392Z,102888.50
2023-02-11T11:56:33.776Z,102884.03
2023-02-11T11:59:07.040Z,102887.03
2023-02-11T12:02:02.063Z,102887.50
2023-02-11T12:04:39.233Z,102885.81
2023-02-11T12:07:12.819Z,102881.34
2023-02-11T12:10:14.662Z,102874.78
2023-02-11T12:13:18.427Z,102872.53
2023-02-11T12:15:55.261Z,102864.44
2023-02-11T12:18:56.777Z,102857.25
2023-02-11T12:21:43.069Z,102843.31
2023-02-11T12:24:48.083Z,102844.03
2023-02-11T12:27:32.846Z,102837.41
2023-02-11T12:30:13.407Z,102841.78
2023-02-11T12:33:15.726Z,102834.00
2023-02-11T12:35:58.678Z,102839.41
2023-02-11T12:38:48.550Z,102833.16
2023-02-11T12:42:04.098Z,102834.44
2023-02-11T12:44:58.729Z,102829.81
2023-02-11T12:47:35.890Z,102828.22
2023-02-11T12:50:27.983Z,102824.59
2023-02-11T12:53:14.178Z,102810.97
2023-02-11T12:55:46.721Z,102802.03
2023-02-11T12:58:29.721Z,102799.47
2023-02-11T13:01:26.436Z,102797.56
2023-02-11T13:04:08.642Z,102794.00
2023-02-11T13:06:52.127Z,102789.41
2023-02-11T13:09:43.985Z,102779.06
2023-02-11T13:12:32.414Z,102775.53
2023-02-11T13:15:07.146Z,102775.84
2023-02-11T13:17:50.273Z,102769.41
2023-02-11T13:20:18.748Z,102771.28
2023-02-11T13:22:59.618Z,102769.19
2023-02-11T13:25:33.516Z,102776.44
2023-02-11T13:28:07.722Z,102779.34
2023-02-11T13:30:39.441Z,102762.78
2023-02-11T13:33:17.924Z,102763.28
2023-02-11T13:35:51.185Z,102762.13
2023-02-11T13:38:25.113Z,102761.38
2023-02-11T13:41:23.516Z,102756.28
2023-02-11T13:44:19.430Z,102754.47
2023-02-11T13:46:50.575Z,102746.72
2023-02-11T13:49:22.318Z,102743.63
2023-02-11T13:51:51.407Z,102743.63
2023-02-11T13:54:30.815Z,102734.91
2023-02-11T13:57:20.865Z,102730.34
2023-02-11T13:59:52.519Z,102724.16
2023-02-11T14:02:55.328Z,102732.78
2023-02-11T14:05:43.538Z,102717.81
2023-02-11T14:08:30.042Z,102730.53
2023-02-11T14:11:10.936Z,102727.63
2023-02-11T14:13:47.714Z,102717.38
2023-02-11T14:16:37.002Z,102709.50
2023-02-11T14:19:06.863Z,102719.03
2023-02-11T14:21:38.749Z,102713.69
2023-02-11T14:24:07.100Z,102707.78
2023-02-11T14:27:11.750Z,102701.63
2023-02-11T14:29:47.751Z,102704.47
2023-02-11T14:32:35.090Z,102707.50
2023-02-11T14:35:18.557Z,102701.72
2023-02-11T14:37:57.588Z,102688.53
2023-02-11T14:40:35.335Z,102693.88
2023-02-11T14:43:29.426Z,102693.91
2023-02-11T14:45:59.324Z,102688.72
2023-02-11T14:48:39.231Z,102688.66
2023-02-11T14:51:10.570Z,102689.28
2023-02-11T14:53:44.052Z,102674.50
2023-02-11T14:56:26.970Z,102679.88
2023-02-11T14:58:55.955Z,102687.03
2023-02-11T15:01:35.582Z,102679.09
2023-02-11T15:04:06.153Z,102683.47
2023-02-11T15:06:49.668Z,102676.56
2023-02-11T15:09:24.177Z,102676.56
2023-02-11T15:11:53.395Z,102670.88
2023-02-11T15:14:30.336Z,102680.47
2023-02-11T15:17:06.299Z,102679.94
2023-02-11T15:19:38.818Z,102681.44
2023-02-11T15:22:18.627Z,102673.03
2023-02-11T15:25:10.838Z,102674.00
2023-02-11T15:27:43.886Z,102668.50
2023-02-11T15:30:24.413Z,102665.03
2023-02-11T15:32:58.693Z,102667.19
2023-02-11T15:35:33.139Z,102676.31
2023-02-11T15:38:01.653Z,102677.09
2023-02-11T15:40:33.144Z,102672.06
2023-02-11T15:43:09.206Z,102662.91
2023-02-11T15:45:42.000Z,102662.41
2023-02-11T15:48:18.874Z,102663.00
2023-02-11T15:50:55.634Z,102664.91
2023-02-11T15:53:38.012Z,102669.28
2023-02-11T15:56:17.873Z,102674.38
2023-02-11T15:58:49.804Z,102669.69
2023-02-11T16:01:18.072Z,102669.00
2023-02-11T16:03:50.927Z,102670.28
2023-02-11T16:06:25.209Z,102664.41
2023-02-11T16:09:12.436Z,102662.50
2023-02-11T16:11:46.455Z,102667.59
2023-02-11T16:14:39.578Z,102670.38
2023-02-11T16:17:25.234Z,102668.16
2023-02-11T16:19:54.305Z,102677.56
2023-02-11T16:22:35.445Z,102674.31
2023-02-11T16:25:03.335Z,102661.50
2023-02-11T16:27:41.186Z,102668.88
2023-02-11T16:30:28.172Z,102662.03
2023-02-11T16:32:56.559Z,102657.53
2023-02-11T16:35:24.753Z,102664.00
2023-02-11T16:37:52.850Z,102666.91
2023-02-11T16:40:21.579Z,102666.34
2023-02-11T16:42:49.853Z,102659.75
2023-02-11T16:45:18.151Z,102662.53
2023-02-11T16:47:46.563Z,102672.56
2023-02-11T16:50:23.384Z,102671.06
2023-02-11T16:52:53.002Z,102671.31
2023-02-11T16:55:22.268Z,102675.75
2023-02-11T16:57:50.143Z,102677.00
2023-02-11T17:00:19.254Z,102673.72
2023-02-11T17:02:47.049Z,102672.97
2023-02-11T17:05:20.853Z,102669.72
2023-02-11T17:07:48.807Z,102676.72
2023-02-11T17:10:21.749Z,102677.03
2023-02-11T17:12:51.052Z,102686.78
2023-02-11T17:15:19.204Z,102688.78
2023-02-11T17:17:46.875Z,102693.28
2023-02-11T17:20:16.096Z,102683.91
2023-02-11T17:22:44.034Z,102683.16
2023-02-11T17:25:12.313Z,102687.63
2023-02-11T17:27:40.964Z,102686.91
2023-02-11T17:30:10.045Z,102690.75
2023-02-11T17:32:39.028Z,102693.59
2023-02-11T17:35:07.598Z,102696.91
2023-02-11T17:37:35.321Z,102691.88
2023-02-11T17:40:03.940Z,102695.25
2023-02-11T17:42:31.528Z,102700.56
2023-02-11T17:44:59.033Z,102693.06
2023-02-11T17:47:27.427Z,102707.22
2023-02-11T17:49:54.912Z,102697.75
2023-02-11T17:52:24.401Z,102707.56
2023-02-11T17:54:52.079Z,102704.84
2023-02-11T17:57:20.384Z,102700.53
2023-02-11T17:59:47.879Z,102697.13
2023-02-11T18:02:16.051Z,102699.00
2023-02-11T18:04:44.367Z,102703.25
2023-02-11T18:07:12.030Z,102699.69
2023-02-11T18:09:40.992Z,102691.91
2023-02-11T18:12:10.785Z,102691.13
2023-02-11T18:14:40.632Z,102681.88
2023-02-11T18:17:09.506Z,102681.19
2023-02-11T18:19:37.691Z,102688.94
2023-02-11T18:22:05.255Z,102696.75
2023-02-11T18:24:33.708Z,102696.03
2023-02-11T18:27:01.478Z,102693.47
2023-02-11T18:29:29.737Z,102692.00
2023-02-11T18:31:58.089Z,102685.72
2023-02-11T18:34:26.847Z,102693.56
2023-02-11T18:36:54.945Z,102691.03
2023-02-11T18:39:24.411Z,102698.13
2023-02-11T18:41:57.076Z,102694.75
2023-02-11T18:44:27.135Z,102693.81
2023-02-11T18:46:55.486Z,102698.22
2023-02-11T18:49:23.581Z,102696.53
2023-02-11T18:51:51.898Z,102687.00
2023-02-11T18:54:19.786Z,102694.06
2023-02-11T18:56:47.882Z,102686.16
2023-02-11T18:59:15.564Z,102682.91
2023-02-11T19:01:46.872Z,102698.41
2023-02-11T19:04:20.132Z,102703.66
2023-02-11T19:06:49.811Z,102705.47
2023-02-11T19:09:19.918Z,102701.16
2023-02-11T19:11:48.038Z,102699.47
2023-02-11T19:14:22.528Z,102705.53
2023-02-11T19:16:53.247Z,102703.88
2023-02-11T19:19:23.264Z,102701.06
2023-02-11T19:21:51.925Z,102700.28
2023-02-11T19:24:20.326Z,102703.59
2023-02-11T19:26:50.186Z,102700.91
2023-02-11T19:29:18.282Z,102703.78
2023-02-11T19:31:46.881Z,102702.38
2023-02-11T19:34:16.665Z,102694.75
2023-02-11T19:36:44.446Z,102700.91
2023-02-11T19:39:12.725Z,102695.84
2023-02-11T19:41:40.866Z,102690.69
2023-02-11T19:44:09.972Z,102694.00
2023-02-11T19:46:41.073Z,102691.38
2023-02-11T19:49:10.104Z,102693.25
2023-02-11T19:51:39.473Z,102682.97
2023-02-11T19:54:08.426Z,102692.50
2023-02-11T19:56:37.974Z,102687.31
2023-02-11T19:59:09.065Z,102695.00
2023-02-11T20:01:37.334Z,102694.34
2023-02-11T20:04:06.010Z,102690.88
2023-02-11T20:06:34.795Z,102684.06
2023-02-11T20:09:06.644Z,102690.13
2023-02-11T20:11:35.624Z,102691.06
2023-02-11T20:14:04.343Z,102692.78
2023-02-11T20:16:47.024Z,102698.16
2023-02-11T20:19:18.374Z,102690.44
2023-02-11T20:21:48.620Z,102688.81
2023-02-11T20:24:18.881Z,102688.84
2023-02-11T20:26:48.605Z,102694.94
2023-02-11T20:29:17.609Z,102695.09
2023-02-11T20:31:45.781Z,102677.97
2023-02-11T20:34:17.061Z,102684.88
2023-02-11T20:36:51.532Z,102683.03
2023-02-11T20:39:22.370Z,102683.03
2023-02-11T20:41:51.261Z,102682.88
2023-02-11T20:44:23.834Z,102685.66
2023-02-11T20:46:52.156Z,102687.56
2023-02-11T20:49:23.692Z,102685.00
2023-02-11T20:51:53.361Z,102686.72
2023-02-11T20:54:23.491Z,102682.31
2023-02-11T20:56:53.718Z,102684.00
2023-02-11T20:59:22.024Z,102678.91
2023-02-11T21:01:55.841Z,102675.50
2023-02-11T21:04:25.613Z,102681.59
2023-02-11T21:06:56.725Z,102684.19
2023-02-11T21:09:28.086Z,102677.34
2023-02-11T21:11:55.994Z,102678.13
2023-02-11T21:14:25.886Z,102678.97
2023-02-11T21:16:54.191Z,102681.59
2023-02-11T21:19:21.894Z,102678.06
2023-02-11T21:21:50.440Z,102674.66
2023-02-11T21:24:18.486Z,102673.81
2023-02-11T21:26:46.106Z,102675.63
2023-02-11T21:29:14.043Z,102685.13
2023-02-11T21:31:42.551Z,102685.13
2023-02-11T21:34:10.801Z,102687.66
2023-02-11T21:36:39.174Z,102685.16
2023-02-11T21:39:07.083Z,102682.66
2023-02-11T21:41:35.619Z,102682.69
2023-02-11T21:44:06.120Z,102674.16
2023-02-11T21:46:33.665Z,102684.47
2023-02-11T21:49:01.880Z,102677.47
2023-02-11T21:51:30.266Z,102668.84
2023-02-11T21:54:03.070Z,102670.63
2023-02-11T21:56:32.159Z,102677.56
2023-02-11T21:59:00.706Z,102687.06
2023-02-11T22:01:31.160Z,102682.75
2023-02-11T22:04:00.176Z,102683.66
2023-02-11T22:06:32.949Z,102679.34
2023-02-11T22:09:07.479Z,102690.72
2023-02-11T22:11:36.310Z,102685.50
2023-02-11T22:14:04.794Z,102682.94
2023-02-11T22:16:33.446Z,102678.59
2023-02-11T22:19:02.566Z,102679.41
2023-02-11T22:21:30.985Z,102670.81
2023-02-11T22:23:59.069Z,102678.59
2023-02-11T22:26:28.650Z,102678.53
2023-02-11T22:28:56.588Z,102680.34
2023-02-11T22:31:30.688Z,102674.28
2023-02-11T22:34:00.180Z,102676.00
2023-02-11T22:36:30.838Z,102685.56
2023-02-11T22:39:11.548Z,102674.28
2023-02-11T22:41:42.372Z,102676.88
2023-02-11T22:44:11.135Z,102675.03
2023-02-11T22:46:39.198Z,102679.34
2023-02-11T22:49:07.858Z,102675.94
2023-02-11T22:51:35.641Z,102676.00
2023-02-11T22:54:06.558Z,102670.88
2023-02-11T22:56:35.331Z,102674.28
2023-02-11T22:59:07.927Z,102682.97
2023-02-11T23:01:35.543Z,102670.88
2023-02-11T23:04:05.009Z,102665.72
2023-02-11T23:06:33.083Z,102663.09
2023-02-11T23:09:01.587Z,102664.00
2023-02-11T23:11:31.336Z,102675.28
2023-02-11T23:13:59.428Z,102673.53
2023-02-11T23:16:34.132Z,102678.75
2023-02-11T23:19:09.151Z,102684.81
2023-02-11T23:21:39.560Z,102681.28
2023-02-11T23:24:12.676Z,102681.28
2023-02-11T23:26:41.751Z,102678.75
2023-02-11T23:29:10.568Z,102683.97
2023-02-11T23:31:41.316Z,102676.19
2023-02-11T23:34:09.885Z,102682.25
2023-02-11T23:36:37.848Z,102679.69
2023-02-11T23:39:05.941Z,102687.47
2023-02-11T23:41:33.882Z,102682.31
2023-02-11T23:44:01.765Z,102684.91
2023-02-11T23:46:29.364Z,102670.22
2023-02-11T23:48:58.203Z,102666.78
2023-02-11T23:51:25.916Z,102672.00
2023-02-11T23:53:56.176Z,102677.13
2023-02-11T23:56:27.112Z,102681.47
2023-02-11T23:58:57.360Z,102678.03
